sensor_id;sensor_type;location;lat;lon;timestamp;temperature;humidity
33255;DHT22;19623;52.482;9.762;2022-08-21T00:01:17;15.90;99.90
33255;DHT22;19623;52.482;9.762;2022-08-21T00:03:43;15.90;99.90
33255;DHT22;19623;52.482;9.762;2022-08-21T00:06:09;15.90;99.90
33255;DHT22;19623;52.482;9.762;2022-08-21T00:08:35;15.90;99.90
33255;DHT22;19623;52.482;9.762;2022-08-21T00:11:01;15.90;99.90
33255;DHT22;19623;52.482;9.762;2022-08-21T00:13:27;15.80;99.90
33255;DHT22;19623;52.482;9.762;2022-08-21T00:15:52;15.60;99.90
33255;DHT22;19623;52.482;9.762;2022-08-21T00:18:19;15.40;99.90
33255;DHT22;19623;52.482;9.762;2022-08-21T00:20:45;15.30;99.90
33255;DHT22;19623;52.482;9.762;2022-08-21T00:23:12;15.20;99.90
33255;DHT22;19623;52.482;9.762;2022-08-21T00:25:39;15.30;99.90
33255;DHT22;19623;52.482;9.762;2022-08-21T00:28:05;15.40;99.90
33255;DHT22;19623;52.482;9.762;2022-08-21T00:30:32;15.40;99.90
33255;DHT22;19623;52.482;9.762;2022-08-21T00:32:58;15.40;99.90
33255;DHT22;19623;52.482;9.762;2022-08-21T00:35:31;15.40;99.90
33255;DHT22;19623;52.482;9.762;2022-08-21T00:37:57;15.40;99.90
33255;DHT22;19623;52.482;9.762;2022-08-21T00:40:51;15.40;99.90
33255;DHT22;19623;52.482;9.762;2022-08-21T00:43:21;15.40;99.90
33255;DHT22;19623;52.482;9.762;2022-08-21T00:45:48;15.40;99.90
33255;DHT22;19623;52.482;9.762;2022-08-21T00:48:14;15.40;99.90
33255;DHT22;19623;52.482;9.762;2022-08-21T00:51:01;15.30;99.90
33255;DHT22;19623;52.482;9.762;2022-08-21T00:53:29;15.30;99.90
33255;DHT22;19623;52.482;9.762;2022-08-21T00:55:56;15.20;99.90
33255;DHT22;19623;52.482;9.762;2022-08-21T00:58:23;15.10;99.90
33255;DHT22;19623;52.482;9.762;2022-08-21T01:00:50;15.10;99.90
33255;DHT22;19623;52.482;9.762;2022-08-21T01:03:19;15.10;99.90
33255;DHT22;19623;52.482;9.762;2022-08-21T01:05:45;15.10;99.90
33255;DHT22;19623;52.482;9.762;2022-08-21T01:08:12;15.10;99.90
33255;DHT22;19623;52.482;9.762;2022-08-21T01:10:38;15.10;99.90
33255;DHT22;19623;52.482;9.762;2022-08-21T01:13:06;15.10;99.90
33255;DHT22;19623;52.482;9.762;2022-08-21T01:15:41;15.10;99.90
33255;DHT22;19623;52.482;9.762;2022-08-21T01:18:09;15.10;99.90
33255;DHT22;19623;52.482;9.762;2022-08-21T01:20:37;15.00;99.90
33255;DHT22;19623;52.482;9.762;2022-08-21T01:23:05;15.00;99.90
33255;DHT22;19623;52.482;9.762;2022-08-21T01:25:32;15.00;99.90
33255;DHT22;19623;52.482;9.762;2022-08-21T01:28:03;15.00;99.90
33255;DHT22;19623;52.482;9.762;2022-08-21T01:30:33;14.90;99.90
33255;DHT22;19623;52.482;9.762;2022-08-21T01:33:00;14.80;99.90
33255;DHT22;19623;52.482;9.762;2022-08-21T01:35:26;14.70;99.90
33255;DHT22;19623;52.482;9.762;2022-08-21T01:37:51;14.60;99.90
33255;DHT22;19623;52.482;9.762;2022-08-21T01:40:17;14.60;99.90
33255;DHT22;19623;52.482;9.762;2022-08-21T01:42:44;14.60;99.90
33255;DHT22;19623;52.482;9.762;2022-08-21T01:45:11;14.60;99.90
33255;DHT22;19623;52.482;9.762;2022-08-21T01:47:37;14.60;99.90
33255;DHT22;19623;52.482;9.762;2022-08-21T01:50:06;14.60;99.90
33255;DHT22;19623;52.482;9.762;2022-08-21T01:52:32;14.70;99.90
33255;DHT22;19623;52.482;9.762;2022-08-21T01:54:58;14.70;99.90
33255;DHT22;19623;52.482;9.762;2022-08-21T01:57:24;14.60;99.90
33255;DHT22;19623;52.482;9.762;2022-08-21T01:59:50;14.60;99.90
33255;DHT22;19623;52.482;9.762;2022-08-21T02:02:16;14.60;99.90
33255;DHT22;19623;52.482;9.762;2022-08-21T02:04:41;14.60;99.90
33255;DHT22;19623;52.482;9.762;2022-08-21T02:07:07;14.60;99.90
33255;DHT22;19623;52.482;9.762;2022-08-21T02:09:33;14.60;99.90
33255;DHT22;19623;52.482;9.762;2022-08-21T02:11:59;14.60;99.90
33255;DHT22;19623;52.482;9.762;2022-08-21T02:14:24;14.50;99.90
33255;DHT22;19623;52.482;9.762;2022-08-21T02:16:50;14.50;99.90
33255;DHT22;19623;52.482;9.762;2022-08-21T02:19:16;14.50;99.90
33255;DHT22;19623;52.482;9.762;2022-08-21T02:21:42;14.40;99.90
33255;DHT22;19623;52.482;9.762;2022-08-21T02:24:08;14.30;99.90
33255;DHT22;19623;52.482;9.762;2022-08-21T02:26:34;14.30;99.90
33255;DHT22;19623;52.482;9.762;2022-08-21T02:29:00;14.30;99.90
33255;DHT22;19623;52.482;9.762;2022-08-21T02:31:26;14.30;99.90
33255;DHT22;19623;52.482;9.762;2022-08-21T02:33:52;14.30;99.90
33255;DHT22;19623;52.482;9.762;2022-08-21T02:36:17;14.30;99.90
33255;DHT22;19623;52.482;9.762;2022-08-21T02:38:43;14.30;99.90
33255;DHT22;19623;52.482;9.762;2022-08-21T02:41:14;14.20;99.90
33255;DHT22;19623;52.482;9.762;2022-08-21T02:43:40;14.20;99.90
33255;DHT22;19623;52.482;9.762;2022-08-21T02:46:08;14.20;99.90
33255;DHT22;19623;52.482;9.762;2022-08-21T02:48:34;14.20;99.90
33255;DHT22;19623;52.482;9.762;2022-08-21T02:51:06;14.20;99.90
33255;DHT22;19623;52.482;9.762;2022-08-21T02:53:33;14.20;99.90
33255;DHT22;19623;52.482;9.762;2022-08-21T02:56:02;14.20;99.90
33255;DHT22;19623;52.482;9.762;2022-08-21T02:58:32;14.20;99.90
33255;DHT22;19623;52.482;9.762;2022-08-21T03:00:59;14.00;99.90
33255;DHT22;19623;52.482;9.762;2022-08-21T03:03:26;13.90;99.90
33255;DHT22;19623;52.482;9.762;2022-08-21T03:05:53;13.90;99.90
33255;DHT22;19623;52.482;9.762;2022-08-21T03:08:20;13.90;99.90
33255;DHT22;19623;52.482;9.762;2022-08-21T03:10:49;13.90;99.90
33255;DHT22;19623;52.482;9.762;2022-08-21T03:13:16;13.90;99.90
33255;DHT22;19623;52.482;9.762;2022-08-21T03:15:43;14.00;99.90
33255;DHT22;19623;52.482;9.762;2022-08-21T03:18:10;14.00;99.90
33255;DHT22;19623;52.482;9.762;2022-08-21T03:20:38;14.00;99.90
33255;DHT22;19623;52.482;9.762;2022-08-21T03:23:05;14.00;99.90
33255;DHT22;19623;52.482;9.762;2022-08-21T03:25:32;14.00;99.90
33255;DHT22;19623;52.482;9.762;2022-08-21T03:28:00;14.00;99.90
33255;DHT22;19623;52.482;9.762;2022-08-21T03:30:26;13.90;99.90
33255;DHT22;19623;52.482;9.762;2022-08-21T03:32:52;13.90;99.90
33255;DHT22;19623;52.482;9.762;2022-08-21T03:35:19;13.90;99.90
33255;DHT22;19623;52.482;9.762;2022-08-21T03:37:45;14.00;99.90
33255;DHT22;19623;52.482;9.762;2022-08-21T03:40:13;14.10;99.90
33255;DHT22;19623;52.482;9.762;2022-08-21T03:42:39;14.10;99.90
33255;DHT22;19623;52.482;9.762;2022-08-21T03:45:06;14.20;99.90
33255;DHT22;19623;52.482;9.762;2022-08-21T03:47:32;14.20;99.90
33255;DHT22;19623;52.482;9.762;2022-08-21T03:49:57;14.20;99.90
33255;DHT22;19623;52.482;9.762;2022-08-21T03:52:23;14.30;99.90
33255;DHT22;19623;52.482;9.762;2022-08-21T03:54:48;14.40;99.90
33255;DHT22;19623;52.482;9.762;2022-08-21T03:57:16;14.40;99.90
33255;DHT22;19623;52.482;9.762;2022-08-21T03:59:42;14.50;99.90
33255;DHT22;19623;52.482;9.762;2022-08-21T04:02:09;14.60;99.90
33255;DHT22;19623;52.482;9.762;2022-08-21T04:04:35;14.70;99.90
33255;DHT22;19623;52.482;9.762;2022-08-21T04:07:02;14.70;99.90
33255;DHT22;19623;52.482;9.762;2022-08-21T04:09:28;14.80;99.90
33255;DHT22;19623;52.482;9.762;2022-08-21T04:11:56;14.80;99.90
33255;DHT22;19623;52.482;9.762;2022-08-21T04:14:21;14.90;99.90
33255;DHT22;19623;52.482;9.762;2022-08-21T04:16:47;14.80;99.90
33255;DHT22;19623;52.482;9.762;2022-08-21T04:19:13;14.80;99.90
33255;DHT22;19623;52.482;9.762;2022-08-21T04:21:40;14.70;99.90
33255;DHT22;19623;52.482;9.762;2022-08-21T04:24:07;14.70;99.90
33255;DHT22;19623;52.482;9.762;2022-08-21T04:26:34;14.60;99.90
33255;DHT22;19623;52.482;9.762;2022-08-21T04:29:00;14.70;99.90
33255;DHT22;19623;52.482;9.762;2022-08-21T04:31:28;14.70;99.90
33255;DHT22;19623;52.482;9.762;2022-08-21T04:33:54;14.70;99.90
33255;DHT22;19623;52.482;9.762;2022-08-21T04:36:20;14.80;99.90
33255;DHT22;19623;52.482;9.762;2022-08-21T04:38:46;14.90;99.90
33255;DHT22;19623;52.482;9.762;2022-08-21T04:41:11;14.90;99.90
33255;DHT22;19623;52.482;9.762;2022-08-21T04:43:38;14.90;99.90
33255;DHT22;19623;52.482;9.762;2022-08-21T04:46:04;15.10;99.90
33255;DHT22;19623;52.482;9.762;2022-08-21T04:48:31;15.10;99.90
33255;DHT22;19623;52.482;9.762;2022-08-21T04:51:22;15.10;99.90
33255;DHT22;19623;52.482;9.762;2022-08-21T04:56:33;15.20;99.90
33255;DHT22;19623;52.482;9.762;2022-08-21T04:59:02;15.20;99.90
33255;DHT22;19623;52.482;9.762;2022-08-21T05:01:32;15.10;99.90
33255;DHT22;19623;52.482;9.762;2022-08-21T05:04:00;15.20;99.90
33255;DHT22;19623;52.482;9.762;2022-08-21T05:06:30;15.20;99.90
33255;DHT22;19623;52.482;9.762;2022-08-21T05:08:57;15.30;99.90
33255;DHT22;19623;52.482;9.762;2022-08-21T05:11:23;15.40;99.90
33255;DHT22;19623;52.482;9.762;2022-08-21T05:13:49;15.40;99.90
33255;DHT22;19623;52.482;9.762;2022-08-21T05:16:15;15.50;99.90
33255;DHT22;19623;52.482;9.762;2022-08-21T05:18:41;15.60;99.90
33255;DHT22;19623;52.482;9.762;2022-08-21T05:21:07;15.60;99.90
33255;DHT22;19623;52.482;9.762;2022-08-21T05:23:33;15.70;99.90
33255;DHT22;19623;52.482;9.762;2022-08-21T05:25:59;15.70;99.90
33255;DHT22;19623;52.482;9.762;2022-08-21T05:28:25;15.80;99.90
33255;DHT22;19623;52.482;9.762;2022-08-21T05:30:51;15.80;99.90
33255;DHT22;19623;52.482;9.762;2022-08-21T05:33:16;15.90;99.90
33255;DHT22;19623;52.482;9.762;2022-08-21T05:35:42;16.00;99.90
33255;DHT22;19623;52.482;9.762;2022-08-21T05:38:09;16.00;99.90
33255;DHT22;19623;52.482;9.762;2022-08-21T05:40:35;16.00;99.90
33255;DHT22;19623;52.482;9.762;2022-08-21T05:43:01;16.20;99.90
33255;DHT22;19623;52.482;9.762;2022-08-21T05:45:30;16.30;99.90
33255;DHT22;19623;52.482;9.762;2022-08-21T05:47:56;16.30;99.90
33255;DHT22;19623;52.482;9.762;2022-08-21T05:50:22;16.30;99.90
33255;DHT22;19623;52.482;9.762;2022-08-21T05:52:48;16.40;99.90
33255;DHT22;19623;52.482;9.762;2022-08-21T05:55:14;16.50;99.90
33255;DHT22;19623;52.482;9.762;2022-08-21T05:57:40;16.50;99.90
33255;DHT22;19623;52.482;9.762;2022-08-21T06:00:07;16.50;99.90
33255;DHT22;19623;52.482;9.762;2022-08-21T06:02:35;16.80;99.90
33255;DHT22;19623;52.482;9.762;2022-08-21T06:05:01;17.00;99.90
33255;DHT22;19623;52.482;9.762;2022-08-21T06:07:26;17.00;99.90
33255;DHT22;19623;52.482;9.762;2022-08-21T06:09:52;17.00;99.90
33255;DHT22;19623;52.482;9.762;2022-08-21T06:12:18;17.00;99.90
33255;DHT22;19623;52.482;9.762;2022-08-21T06:14:43;17.00;99.90
33255;DHT22;19623;52.482;9.762;2022-08-21T06:17:11;17.00;99.90
33255;DHT22;19623;52.482;9.762;2022-08-21T06:19:38;17.10;99.90
33255;DHT22;19623;52.482;9.762;2022-08-21T06:22:04;17.30;99.90
33255;DHT22;19623;52.482;9.762;2022-08-21T06:24:30;17.40;99.90
33255;DHT22;19623;52.482;9.762;2022-08-21T06:26:56;17.50;99.90
33255;DHT22;19623;52.482;9.762;2022-08-21T06:29:22;17.50;99.90
33255;DHT22;19623;52.482;9.762;2022-08-21T06:31:50;17.50;99.90
33255;DHT22;19623;52.482;9.762;2022-08-21T06:34:17;17.50;99.90
33255;DHT22;19623;52.482;9.762;2022-08-21T06:36:43;17.50;99.90
33255;DHT22;19623;52.482;9.762;2022-08-21T06:39:08;17.50;99.90
33255;DHT22;19623;52.482;9.762;2022-08-21T06:41:34;17.60;99.90
33255;DHT22;19623;52.482;9.762;2022-08-21T06:44:00;17.60;99.90
33255;DHT22;19623;52.482;9.762;2022-08-21T06:46:28;17.70;99.90
33255;DHT22;19623;52.482;9.762;2022-08-21T06:48:54;17.70;99.90
33255;DHT22;19623;52.482;9.762;2022-08-21T06:51:20;17.70;99.90
33255;DHT22;19623;52.482;9.762;2022-08-21T06:53:45;17.70;99.90
33255;DHT22;19623;52.482;9.762;2022-08-21T06:56:11;17.70;99.90
33255;DHT22;19623;52.482;9.762;2022-08-21T06:58:37;17.60;99.90
33255;DHT22;19623;52.482;9.762;2022-08-21T07:01:03;17.60;99.90
33255;DHT22;19623;52.482;9.762;2022-08-21T07:03:36;17.50;99.90
33255;DHT22;19623;52.482;9.762;2022-08-21T07:06:04;17.50;99.90
33255;DHT22;19623;52.482;9.762;2022-08-21T07:08:30;17.50;99.90
33255;DHT22;19623;52.482;9.762;2022-08-21T07:10:58;17.50;99.90
33255;DHT22;19623;52.482;9.762;2022-08-21T07:13:24;17.60;99.90
33255;DHT22;19623;52.482;9.762;2022-08-21T07:15:50;17.60;99.90
33255;DHT22;19623;52.482;9.762;2022-08-21T07:18:16;17.70;99.90
33255;DHT22;19623;52.482;9.762;2022-08-21T07:20:42;17.90;99.90
33255;DHT22;19623;52.482;9.762;2022-08-21T07:23:11;18.10;99.90
33255;DHT22;19623;52.482;9.762;2022-08-21T07:25:38;18.30;99.90
33255;DHT22;19623;52.482;9.762;2022-08-21T07:28:04;18.40;99.90
33255;DHT22;19623;52.482;9.762;2022-08-21T07:30:30;18.60;99.90
33255;DHT22;19623;52.482;9.762;2022-08-21T07:32:56;18.70;99.90
33255;DHT22;19623;52.482;9.762;2022-08-21T07:35:22;18.90;99.90
33255;DHT22;19623;52.482;9.762;2022-08-21T07:37:48;19.00;99.90
33255;DHT22;19623;52.482;9.762;2022-08-21T07:40:14;19.10;99.90
33255;DHT22;19623;52.482;9.762;2022-08-21T07:42:42;19.30;99.90
33255;DHT22;19623;52.482;9.762;2022-08-21T07:45:08;19.40;99.90
33255;DHT22;19623;52.482;9.762;2022-08-21T07:47:34;19.50;99.90
33255;DHT22;19623;52.482;9.762;2022-08-21T07:50:00;19.50;99.90
33255;DHT22;19623;52.482;9.762;2022-08-21T07:52:25;19.60;99.90
33255;DHT22;19623;52.482;9.762;2022-08-21T07:54:51;19.70;99.90
33255;DHT22;19623;52.482;9.762;2022-08-21T07:57:17;19.90;99.90
33255;DHT22;19623;52.482;9.762;2022-08-21T07:59:42;20.00;99.90
33255;DHT22;19623;52.482;9.762;2022-08-21T08:02:08;20.00;99.90
33255;DHT22;19623;52.482;9.762;2022-08-21T08:04:33;20.10;99.90
33255;DHT22;19623;52.482;9.762;2022-08-21T08:06:59;20.10;99.90
33255;DHT22;19623;52.482;9.762;2022-08-21T08:09:24;20.30;99.90
33255;DHT22;19623;52.482;9.762;2022-08-21T08:11:50;20.30;99.90
33255;DHT22;19623;52.482;9.762;2022-08-21T08:14:16;20.50;99.90
33255;DHT22;19623;52.482;9.762;2022-08-21T08:16:42;20.50;99.90
33255;DHT22;19623;52.482;9.762;2022-08-21T08:19:08;20.60;99.90
33255;DHT22;19623;52.482;9.762;2022-08-21T08:21:33;20.70;99.90
33255;DHT22;19623;52.482;9.762;2022-08-21T08:24:00;20.80;99.90
33255;DHT22;19623;52.482;9.762;2022-08-21T08:26:26;20.90;99.90
33255;DHT22;19623;52.482;9.762;2022-08-21T08:28:51;20.90;99.90
33255;DHT22;19623;52.482;9.762;2022-08-21T08:31:17;21.00;99.90
33255;DHT22;19623;52.482;9.762;2022-08-21T08:33:45;21.10;99.90
33255;DHT22;19623;52.482;9.762;2022-08-21T08:36:16;21.20;99.90
33255;DHT22;19623;52.482;9.762;2022-08-21T08:38:42;21.20;99.90
33255;DHT22;19623;52.482;9.762;2022-08-21T08:41:13;21.30;99.90
33255;DHT22;19623;52.482;9.762;2022-08-21T08:43:42;21.40;99.90
33255;DHT22;19623;52.482;9.762;2022-08-21T08:46:16;21.40;99.90
33255;DHT22;19623;52.482;9.762;2022-08-21T08:48:54;21.50;99.90
33255;DHT22;19623;52.482;9.762;2022-08-21T08:51:45;21.60;99.90
33255;DHT22;19623;52.482;9.762;2022-08-21T08:54:17;21.60;99.90
33255;DHT22;19623;52.482;9.762;2022-08-21T08:56:44;21.70;99.90
33255;DHT22;19623;52.482;9.762;2022-08-21T08:59:25;21.80;99.90
33255;DHT22;19623;52.482;9.762;2022-08-21T09:01:53;21.80;99.90
33255;DHT22;19623;52.482;9.762;2022-08-21T09:04:23;21.80;99.90
33255;DHT22;19623;52.482;9.762;2022-08-21T09:15:43;22.10;99.90
33255;DHT22;19623;52.482;9.762;2022-08-21T09:26:29;22.40;99.90
33255;DHT22;19623;52.482;9.762;2022-08-21T09:28:58;22.40;99.90
33255;DHT22;19623;52.482;9.762;2022-08-21T09:31:26;22.40;99.90
33255;DHT22;19623;52.482;9.762;2022-08-21T09:34:26;22.50;99.90
33255;DHT22;19623;52.482;9.762;2022-08-21T09:36:51;22.50;99.90
33255;DHT22;19623;52.482;9.762;2022-08-21T09:39:30;22.50;99.90
33255;DHT22;19623;52.482;9.762;2022-08-21T09:42:02;22.50;99.90
33255;DHT22;19623;52.482;9.762;2022-08-21T09:44:30;22.60;99.90
33255;DHT22;19623;52.482;9.762;2022-08-21T09:46:57;22.80;99.90
33255;DHT22;19623;52.482;9.762;2022-08-21T09:49:35;22.90;99.90
33255;DHT22;19623;52.482;9.762;2022-08-21T09:52:02;23.00;99.90
33255;DHT22;19623;52.482;9.762;2022-08-21T09:54:37;23.00;99.90
33255;DHT22;19623;52.482;9.762;2022-08-21T09:59:54;23.00;99.90
33255;DHT22;19623;52.482;9.762;2022-08-21T10:02:30;23.10;99.90
33255;DHT22;19623;52.482;9.762;2022-08-21T10:04:58;23.20;99.90
33255;DHT22;19623;52.482;9.762;2022-08-21T10:07:27;23.20;99.90
33255;DHT22;19623;52.482;9.762;2022-08-21T10:12:37;23.40;99.90
33255;DHT22;19623;52.482;9.762;2022-08-21T10:20:52;23.50;99.90
33255;DHT22;19623;52.482;9.762;2022-08-21T10:23:45;23.50;99.90
33255;DHT22;19623;52.482;9.762;2022-08-21T10:29:02;23.50;99.90
33255;DHT22;19623;52.482;9.762;2022-08-21T10:31:52;23.60;99.90
33255;DHT22;19623;52.482;9.762;2022-08-21T10:34:34;23.70;99.90
33255;DHT22;19623;52.482;9.762;2022-08-21T10:45:28;23.80;99.90
33255;DHT22;19623;52.482;9.762;2022-08-21T10:48:07;23.80;99.90
33255;DHT22;19623;52.482;9.762;2022-08-21T10:50:44;23.60;99.90
33255;DHT22;19623;52.482;9.762;2022-08-21T10:53:29;23.50;99.90
33255;DHT22;19623;52.482;9.762;2022-08-21T10:56:01;23.60;99.90
33255;DHT22;19623;52.482;9.762;2022-08-21T10:58:39;23.80;99.90
33255;DHT22;19623;52.482;9.762;2022-08-21T11:01:17;23.90;99.90
33255;DHT22;19623;52.482;9.762;2022-08-21T11:03:52;24.00;99.90
33255;DHT22;19623;52.482;9.762;2022-08-21T11:06:25;24.20;99.90
33255;DHT22;19623;52.482;9.762;2022-08-21T11:09:02;24.30;99.90
33255;DHT22;19623;52.482;9.762;2022-08-21T11:11:47;24.40;99.90
33255;DHT22;19623;52.482;9.762;2022-08-21T11:14:25;24.60;99.90
33255;DHT22;19623;52.482;9.762;2022-08-21T11:17:09;24.70;99.90
33255;DHT22;19623;52.482;9.762;2022-08-21T11:22:33;24.90;99.90
33255;DHT22;19623;52.482;9.762;2022-08-21T11:25:23;24.90;99.90
33255;DHT22;19623;52.482;9.762;2022-08-21T11:27:56;25.00;99.90
33255;DHT22;19623;52.482;9.762;2022-08-21T11:30:27;24.90;99.90
33255;DHT22;19623;52.482;9.762;2022-08-21T11:36:07;25.10;99.90
33255;DHT22;19623;52.482;9.762;2022-08-21T11:38:41;25.20;99.90
33255;DHT22;19623;52.482;9.762;2022-08-21T11:41:22;25.20;99.90
33255;DHT22;19623;52.482;9.762;2022-08-21T11:52:18;25.00;99.90
33255;DHT22;19623;52.482;9.762;2022-08-21T11:57:39;24.90;99.90
33255;DHT22;19623;52.482;9.762;2022-08-21T12:00:30;25.00;99.90
33255;DHT22;19623;52.482;9.762;2022-08-21T12:03:31;25.20;99.90
33255;DHT22;19623;52.482;9.762;2022-08-21T12:06:06;25.30;99.90
33255;DHT22;19623;52.482;9.762;2022-08-21T12:08:34;25.40;99.90
33255;DHT22;19623;52.482;9.762;2022-08-21T12:13:29;25.30;99.90
33255;DHT22;19623;52.482;9.762;2022-08-21T12:16:09;25.20;99.90
33255;DHT22;19623;52.482;9.762;2022-08-21T12:18:35;25.30;99.90
33255;DHT22;19623;52.482;9.762;2022-08-21T12:21:05;25.30;99.90
33255;DHT22;19623;52.482;9.762;2022-08-21T12:24:19;25.30;99.90
33255;DHT22;19623;52.482;9.762;2022-08-21T12:26:21;25.40;99.90
33255;DHT22;19623;52.482;9.762;2022-08-21T12:28:47;25.50;99.90
33255;DHT22;19623;52.482;9.762;2022-08-21T12:31:23;25.40;99.90
33255;DHT22;19623;52.482;9.762;2022-08-21T12:33:59;25.20;99.90
33255;DHT22;19623;52.482;9.762;2022-08-21T12:36:41;25.10;99.90
33255;DHT22;19623;52.482;9.762;2022-08-21T12:39:17;25.20;99.90
33255;DHT22;19623;52.482;9.762;2022-08-21T12:42:03;25.30;99.90
33255;DHT22;19623;52.482;9.762;2022-08-21T12:44:42;25.40;99.90
33255;DHT22;19623;52.482;9.762;2022-08-21T12:47:33;25.40;99.90
33255;DHT22;19623;52.482;9.762;2022-08-21T12:50:13;25.20;99.90
33255;DHT22;19623;52.482;9.762;2022-08-21T12:55:15;25.30;99.90
33255;DHT22;19623;52.482;9.762;2022-08-21T12:57:42;25.30;99.90
33255;DHT22;19623;52.482;9.762;2022-08-21T13:00:10;25.30;99.90
33255;DHT22;19623;52.482;9.762;2022-08-21T13:02:42;25.40;99.90
33255;DHT22;19623;52.482;9.762;2022-08-21T13:05:14;25.40;99.90
33255;DHT22;19623;52.482;9.762;2022-08-21T13:07:44;25.50;99.90
33255;DHT22;19623;52.482;9.762;2022-08-21T13:10:22;25.50;99.90
33255;DHT22;19623;52.482;9.762;2022-08-21T13:12:48;25.50;99.90
33255;DHT22;19623;52.482;9.762;2022-08-21T13:15:14;25.50;99.90
33255;DHT22;19623;52.482;9.762;2022-08-21T13:17:44;25.50;99.90
33255;DHT22;19623;52.482;9.762;2022-08-21T13:20:24;25.50;99.90
33255;DHT22;19623;52.482;9.762;2022-08-21T13:22:50;25.40;99.90
33255;DHT22;19623;52.482;9.762;2022-08-21T13:25:18;25.20;99.90
33255;DHT22;19623;52.482;9.762;2022-08-21T13:30:27;25.50;99.90
33255;DHT22;19623;52.482;9.762;2022-08-21T13:33:00;25.60;99.90
33255;DHT22;19623;52.482;9.762;2022-08-21T13:38:16;25.70;99.90
33255;DHT22;19623;52.482;9.762;2022-08-21T13:40:59;25.70;99.90
33255;DHT22;19623;52.482;9.762;2022-08-21T13:43:31;25.70;99.90
33255;DHT22;19623;52.482;9.762;2022-08-21T13:45:58;25.60;99.90
33255;DHT22;19623;52.482;9.762;2022-08-21T13:48:28;25.50;99.90
33255;DHT22;19623;52.482;9.762;2022-08-21T13:50:55;25.40;99.90
33255;DHT22;19623;52.482;9.762;2022-08-21T13:53:48;25.30;99.90
33255;DHT22;19623;52.482;9.762;2022-08-21T13:56:32;25.30;99.90
33255;DHT22;19623;52.482;9.762;2022-08-21T13:59:00;25.40;99.90
33255;DHT22;19623;52.482;9.762;2022-08-21T14:01:32;25.60;99.90
33255;DHT22;19623;52.482;9.762;2022-08-21T14:04:05;25.80;99.90
33255;DHT22;19623;52.482;9.762;2022-08-21T14:06:37;25.90;99.90
33255;DHT22;19623;52.482;9.762;2022-08-21T14:09:23;26.00;99.90
33255;DHT22;19623;52.482;9.762;2022-08-21T14:11:51;26.20;99.90
33255;DHT22;19623;52.482;9.762;2022-08-21T14:14:30;26.20;99.90
33255;DHT22;19623;52.482;9.762;2022-08-21T14:17:03;26.30;99.90
33255;DHT22;19623;52.482;9.762;2022-08-21T14:19:45;26.30;99.90
33255;DHT22;19623;52.482;9.762;2022-08-21T14:22:32;26.20;99.90
33255;DHT22;19623;52.482;9.762;2022-08-21T14:25:06;26.20;99.90
33255;DHT22;19623;52.482;9.762;2022-08-21T14:27:34;26.30;99.90
33255;DHT22;19623;52.482;9.762;2022-08-21T14:30:16;26.30;99.90
33255;DHT22;19623;52.482;9.762;2022-08-21T14:32:42;26.40;99.90
33255;DHT22;19623;52.482;9.762;2022-08-21T14:35:09;26.40;99.90
33255;DHT22;19623;52.482;9.762;2022-08-21T14:37:35;26.50;99.90
33255;DHT22;19623;52.482;9.762;2022-08-21T14:40:02;26.60;99.90
33255;DHT22;19623;52.482;9.762;2022-08-21T14:42:28;26.60;99.90
33255;DHT22;19623;52.482;9.762;2022-08-21T14:44:57;26.60;99.90
33255;DHT22;19623;52.482;9.762;2022-08-21T14:47:24;26.50;99.90
33255;DHT22;19623;52.482;9.762;2022-08-21T14:49:50;26.50;99.90
33255;DHT22;19623;52.482;9.762;2022-08-21T14:52:19;26.50;99.90
33255;DHT22;19623;52.482;9.762;2022-08-21T14:54:44;26.40;99.90
33255;DHT22;19623;52.482;9.762;2022-08-21T14:57:11;26.20;99.90
33255;DHT22;19623;52.482;9.762;2022-08-21T14:59:38;26.20;99.90
33255;DHT22;19623;52.482;9.762;2022-08-21T15:02:04;26.10;99.90
33255;DHT22;19623;52.482;9.762;2022-08-21T15:04:30;26.30;99.90
33255;DHT22;19623;52.482;9.762;2022-08-21T15:06:56;26.30;99.90
33255;DHT22;19623;52.482;9.762;2022-08-21T15:09:22;26.30;99.90
33255;DHT22;19623;52.482;9.762;2022-08-21T15:11:49;26.30;99.90
33255;DHT22;19623;52.482;9.762;2022-08-21T15:14:21;26.20;99.90
33255;DHT22;19623;52.482;9.762;2022-08-21T15:16:48;26.20;99.90
33255;DHT22;19623;52.482;9.762;2022-08-21T15:19:14;26.20;99.90
33255;DHT22;19623;52.482;9.762;2022-08-21T15:21:39;26.20;99.90
33255;DHT22;19623;52.482;9.762;2022-08-21T15:24:05;26.20;99.90
33255;DHT22;19623;52.482;9.762;2022-08-21T15:26:31;26.30;99.90
33255;DHT22;19623;52.482;9.762;2022-08-21T15:28:56;26.40;99.90
33255;DHT22;19623;52.482;9.762;2022-08-21T15:31:22;26.60;99.90
33255;DHT22;19623;52.482;9.762;2022-08-21T15:33:48;26.70;99.90
33255;DHT22;19623;52.482;9.762;2022-08-21T15:36:13;26.80;99.90
33255;DHT22;19623;52.482;9.762;2022-08-21T15:38:39;26.90;99.90
33255;DHT22;19623;52.482;9.762;2022-08-21T15:41:05;27.00;99.90
33255;DHT22;19623;52.482;9.762;2022-08-21T15:43:51;27.10;99.90
33255;DHT22;19623;52.482;9.762;2022-08-21T15:46:18;27.20;99.90
33255;DHT22;19623;52.482;9.762;2022-08-21T15:48:44;27.20;99.90
33255;DHT22;19623;52.482;9.762;2022-08-21T15:51:12;27.20;99.90
33255;DHT22;19623;52.482;9.762;2022-08-21T15:53:38;27.20;99.90
33255;DHT22;19623;52.482;9.762;2022-08-21T15:56:11;27.20;99.90
33255;DHT22;19623;52.482;9.762;2022-08-21T15:58:39;27.30;99.90
33255;DHT22;19623;52.482;9.762;2022-08-21T16:01:05;27.30;99.90
33255;DHT22;19623;52.482;9.762;2022-08-21T16:03:31;27.30;99.90
33255;DHT22;19623;52.482;9.762;2022-08-21T16:05:58;27.40;99.90
33255;DHT22;19623;52.482;9.762;2022-08-21T16:08:24;27.40;99.90
33255;DHT22;19623;52.482;9.762;2022-08-21T16:10:51;27.50;99.90
33255;DHT22;19623;52.482;9.762;2022-08-21T16:13:35;27.60;99.90
33255;DHT22;19623;52.482;9.762;2022-08-21T16:16:02;27.60;99.90
33255;DHT22;19623;52.482;9.762;2022-08-21T16:18:28;27.70;99.90
33255;DHT22;19623;52.482;9.762;2022-08-21T16:20:53;27.80;99.90
33255;DHT22;19623;52.482;9.762;2022-08-21T16:23:19;27.80;99.90
33255;DHT22;19623;52.482;9.762;2022-08-21T16:25:45;27.90;99.90
33255;DHT22;19623;52.482;9.762;2022-08-21T16:28:15;28.00;99.90
33255;DHT22;19623;52.482;9.762;2022-08-21T16:30:44;28.00;99.90
33255;DHT22;19623;52.482;9.762;2022-08-21T16:33:34;27.90;99.90
33255;DHT22;19623;52.482;9.762;2022-08-21T16:36:02;27.70;99.90
33255;DHT22;19623;52.482;9.762;2022-08-21T16:38:29;27.50;99.90
33255;DHT22;19623;52.482;9.762;2022-08-21T16:40:58;27.40;99.90
33255;DHT22;19623;52.482;9.762;2022-08-21T16:43:26;27.30;99.90
33255;DHT22;19623;52.482;9.762;2022-08-21T16:45:53;27.10;99.90
33255;DHT22;19623;52.482;9.762;2022-08-21T16:48:20;26.80;99.90
33255;DHT22;19623;52.482;9.762;2022-08-21T16:50:45;26.50;99.90
33255;DHT22;19623;52.482;9.762;2022-08-21T16:53:11;26.30;99.90